Time;durP1;ratioP1;P1;durP2;ratioP2;P2;SDS_P1;SDS_P2;PMS_P1;PMS_P2;Temp;Humidity;BMP_temperature;BMP_pressure;BME280_temperature;BME280_humidity;BME280_pressure;Samples;Min_cycle;Max_cycle;Signal;HPM_P1;HPM_P2
2021/06/28 00:00:23;;;;;;;4.63;3.72;;;;;;;24.51;48.04;99755.13;5073168;28;20056;-88
2021/06/28 00:02:51;;;;;;;4.20;3.80;;;;;;;24.53;48.19;99757.66;5074170;28;20048;-89
2021/06/28 00:05:19;;;;;;;3.78;3.47;;;;;;;24.53;48.11;99753.13;5074100;28;20053;-92
2021/06/28 00:07:46;;;;;;;4.13;3.00;;;;;;;24.56;48.32;99751.91;5075233;28;20094;-93
2021/06/28 00:10:16;;;;;;;3.75;3.40;;;;;;;24.57;49.21;99751.75;5072764;28;20075;-89
2021/06/28 00:12:44;;;;;;;3.78;3.47;;;;;;;24.57;48.17;99749.06;5073722;28;20063;-89
2021/06/28 00:15:15;;;;;;;4.38;3.97;;;;;;;24.57;48.91;99746.38;5074817;28;20052;-88
2021/06/28 00:17:42;;;;;;;4.25;3.85;;;;;;;24.58;48.78;99737.25;5073122;28;20059;-93
2021/06/28 00:20:11;;;;;;;5.03;3.75;;;;;;;24.60;49.06;99742.47;5073642;28;20048;-93
2021/06/28 00:22:38;;;;;;;4.57;3.65;;;;;;;24.60;48.81;99742.47;5073854;28;20052;-91
2021/06/28 00:25:10;;;;;;;3.80;3.50;;;;;;;24.58;49.02;99737.25;5073448;28;20048;-90
2021/06/28 00:27:41;;;;;;;3.75;3.35;;;;;;;24.60;48.82;99731.72;5072269;28;20052;-88
2021/06/28 00:30:25;;;;;;;3.90;3.60;;;;;;;24.58;49.11;99728.34;5073776;28;20048;-89
2021/06/28 00:32:51;;;;;;;3.92;3.60;;;;;;;24.56;48.98;99720.44;5072308;28;20547;-92
2021/06/28 00:35:20;;;;;;;3.88;3.55;;;;;;;24.54;49.14;99722.50;5073609;28;20106;-90
2021/06/28 00:37:48;;;;;;;3.80;3.50;;;;;;;24.52;49.20;99721.81;5074799;28;20045;-90
2021/06/28 00:40:17;;;;;;;3.88;3.58;;;;;;;24.51;49.49;99720.16;5072423;28;20048;-91
2021/06/28 00:42:44;;;;;;;3.70;3.40;;;;;;;24.52;48.99;99718.31;5072056;28;20048;-89
2021/06/28 00:45:17;;;;;;;5.32;3.40;;;;;;;24.49;49.62;99714.13;5072759;28;20045;-89
2021/06/28 00:47:44;;;;;;;3.20;3.00;;;;;;;24.51;49.48;99714.78;5074023;28;20055;-88
2021/06/28 00:50:11;;;;;;;5.60;2.72;;;;;;;24.51;49.23;99717.47;5073600;28;20509;-88
2021/06/28 00:52:39;;;;;;;3.42;3.10;;;;;;;24.50;49.26;99726.56;5072079;28;20098;-88
2021/06/28 00:55:08;;;;;;;3.78;3.47;;;;;;;24.47;49.83;99718.84;5073922;28;20677;-92
2021/06/28 00:57:35;;;;;;;3.90;3.50;;;;;;;24.46;49.91;99714.47;5072840;28;20078;-89
2021/06/28 01:00:05;;;;;;;3.90;3.60;;;;;;;24.44;50.07;99721.88;5072477;28;20509;-89
2021/06/28 01:02:32;;;;;;;4.05;3.65;;;;;;;24.42;49.69;99721.25;5073002;28;20060;-89
2021/06/28 01:04:59;;;;;;;4.03;3.72;;;;;;;24.40;49.83;99713.34;5072004;28;20051;-89
2021/06/28 01:07:27;;;;;;;4.38;3.97;;;;;;;24.39;50.08;99718.91;5073017;28;20052;-88
2021/06/28 01:09:54;;;;;;;5.85;4.07;;;;;;;24.39;49.40;99718.91;5072392;28;20098;-89
2021/06/28 01:12:20;;;;;;;4.40;4.00;;;;;;;24.37;49.14;99713.69;5073094;28;20529;-89
2021/06/28 01:14:48;;;;;;;4.22;3.83;;;;;;;24.35;49.59;99715.75;5071628;28;20055;-90
2021/06/28 01:17:15;;;;;;;6.55;4.30;;;;;;;24.32;49.15;99711.56;5071545;28;20045;-92
2021/06/28 01:19:53;;;;;;;4.45;4.05;;;;;;;24.28;49.39;99712.09;5073000;28;20421;-89
2021/06/28 01:22:24;;;;;;;5.53;3.78;;;;;;;24.26;49.44;99704.19;5072981;28;20044;-92
2021/06/28 01:24:55;;;;;;;4.82;3.67;;;;;;;24.22;49.78;99702.88;5072448;28;20060;-90
2021/06/28 01:27:22;;;;;;;10.98;4.50;;;;;;;24.18;49.66;99690.81;5071717;28;20064;-90
2021/06/28 01:29:49;;;;;;;3.95;3.65;;;;;;;24.11;49.72;99689.84;5072493;28;20049;-92
2021/06/28 01:32:16;;;;;;;5.50;4.22;;;;;;;24.04;49.84;99681.63;5071961;28;20056;-89
2021/06/28 01:34:43;;;;;;;4.63;4.18;;;;;;;23.98;50.08;99677.78;5072900;28;20060;-90
2021/06/28 01:37:21;;;;;;;5.95;4.15;;;;;;;23.87;50.94;99678.19;5072500;28;20049;-88
2021/06/28 01:39:50;;;;;;;4.65;4.25;;;;;;;23.84;50.43;99679.38;5071427;28;20060;-88
2021/06/28 01:42:17;;;;;;;5.43;4.28;;;;;;;23.78;50.61;99670.16;5073046;28;20052;-90
2021/06/28 01:44:43;;;;;;;8.85;4.60;;;;;;;23.71;51.26;99666.53;5072211;28;20433;-89
2021/06/28 01:47:10;;;;;;;4.45;4.05;;;;;;;23.63;51.04;99661.19;5071326;28;20063;-91
2021/06/28 01:49:37;;;;;;;5.28;4.68;;;;;;;23.55;51.04;99667.47;5071970;28;20768;-92
2021/06/28 01:52:05;;;;;;;4.80;4.13;;;;;;;23.47;51.58;99657.56;5071643;28;20051;-89
2021/06/28 01:54:32;;;;;;;4.50;4.10;;;;;;;23.40;51.72;99653.91;5072046;28;20102;-90
2021/06/28 01:57:00;;;;;;;5.47;4.43;;;;;;;23.34;51.84;99655.44;5071244;28;20048;-89
2021/06/28 01:59:29;;;;;;;4.75;4.35;;;;;;;23.30;51.92;99654.09;5072306;28;20045;-89
2021/06/28 02:01:57;;;;;;;4.10;3.70;;;;;;;23.26;51.81;99656.28;5071784;28;20041;-89
2021/06/28 02:04:25;;;;;;;4.40;3.72;;;;;;;23.21;51.61;99664.00;5071865;28;20053;-91
2021/06/28 02:06:53;;;;;;;4.13;3.72;;;;;;;23.19;51.65;99660.66;5071676;28;20064;-89
2021/06/28 02:09:20;;;;;;;6.15;4.10;;;;;;;23.14;51.76;99665.72;5070706;28;20791;-90
2021/06/28 02:11:48;;;;;;;6.63;3.80;;;;;;;23.12;52.68;99667.72;5072525;28;20422;-88
2021/06/28 02:14:16;;;;;;;8.35;3.83;;;;;;;23.12;52.36;99659.69;5071206;28;20445;-87
2021/06/28 02:16:44;;;;;;;4.10;3.65;;;;;;;23.12;52.55;99657.00;5072910;28;20052;-88
2021/06/28 02:19:15;;;;;;;5.35;3.78;;;;;;;23.13;52.18;99650.59;5072760;28;20052;-88
2021/06/28 02:21:44;;;;;;;14.43;3.50;;;;;;;23.13;52.40;99648.78;5071848;28;20055;-88
2021/06/28 02:24:11;;;;;;;3.33;3.03;;;;;;;23.14;52.00;99650.44;5070759;28;20048;-88
2021/06/28 02:26:40;;;;;;;3.58;3.28;;;;;;;23.17;52.04;99651.94;5072082;28;20489;-87
2021/06/28 02:29:06;;;;;;;3.80;3.50;;;;;;;23.19;52.05;99652.63;5071377;28;20130;-89
2021/06/28 02:31:34;;;;;;;4.53;3.75;;;;;;;23.20;52.02;99648.91;5072023;28;20110;-89
2021/06/28 02:34:02;;;;;;;4.28;3.88;;;;;;;23.20;51.70;99643.53;5071296;28;20131;-89
2021/06/28 02:36:28;;;;;;;4.00;3.70;;;;;;;23.21;51.80;99644.38;5070729;28;20410;-89
2021/06/28 02:38:56;;;;;;;4.07;3.72;;;;;;;23.21;52.11;99647.06;5072092;28;20048;-90
2021/06/28 02:41:24;;;;;;;4.47;3.92;;;;;;;23.22;52.06;99649.59;5074227;28;20049;-90
2021/06/28 02:43:52;;;;;;;4.50;4.10;;;;;;;23.22;52.01;99644.22;5074530;28;20401;-89
2021/06/28 02:46:20;;;;;;;4.85;4.45;;;;;;;23.25;51.89;99649.22;5075064;28;20048;-89
2021/06/28 02:48:47;;;;;;;5.35;4.20;;;;;;;23.27;52.08;99641.84;5075539;28;20052;-90
2021/06/28 02:51:15;;;;;;;4.95;4.45;;;;;;;23.29;51.97;99639.00;5075032;28;20040;-90
2021/06/28 02:53:42;;;;;;;4.80;4.30;;;;;;;23.31;51.76;99645.00;5073093;28;20060;-90
2021/06/28 02:56:19;;;;;;;5.40;4.93;;;;;;;23.30;51.39;99635.28;5074387;28;20059;-91
2021/06/28 02:58:54;;;;;;;5.13;4.63;;;;;;;23.29;51.63;99639.81;5074840;28;20071;-90
2021/06/28 03:01:25;;;;;;;6.88;4.20;;;;;;;23.32;51.62;99637.81;5075618;28;20497;-92
2021/06/28 03:03:52;;;;;;;4.65;4.25;;;;;;;23.35;51.37;99650.91;5073969;28;20053;-89
2021/06/28 03:06:21;;;;;;;4.55;4.15;;;;;;;23.34;51.20;99650.06;5075248;28;20094;-89
2021/06/28 03:08:48;;;;;;;4.75;4.20;;;;;;;23.37;51.48;99652.44;5074213;28;20048;-90
2021/06/28 03:11:17;;;;;;;4.35;3.95;;;;;;;23.39;51.41;99661.13;5074314;28;20044;-89
2021/06/28 03:13:44;;;;;;;4.57;4.18;;;;;;;23.41;51.65;99659.09;5076539;28;20063;-89
2021/06/28 03:16:13;;;;;;;4.38;3.97;;;;;;;23.44;51.52;99663.31;5075233;28;20135;-89
2021/06/28 03:18:41;;;;;;;5.38;4.30;;;;;;;23.45;51.83;99664.97;5075662;28;20049;-89
2021/06/28 03:21:10;;;;;;;4.03;3.72;;;;;;;23.48;51.63;99670.00;5074092;28;20131;-91
2021/06/28 03:23:42;;;;;;;4.35;3.95;;;;;;;23.50;51.08;99667.13;5076597;28;20057;-89
2021/06/28 03:26:10;;;;;;;4.30;3.88;;;;;;;23.51;51.52;99664.25;5074636;28;20569;-90
2021/06/28 03:28:36;;;;;;;4.50;4.10;;;;;;;23.54;51.21;99665.75;5076826;28;20044;-92
2021/06/28 03:31:05;;;;;;;3.92;3.63;;;;;;;23.55;51.70;99664.78;5075756;28;20512;-90
2021/06/28 03:33:33;;;;;;;3.92;3.53;;;;;;;23.56;51.43;99666.44;5074742;28;20131;-89
2021/06/28 03:36:00;;;;;;;5.15;3.67;;;;;;;23.59;51.66;99654.50;5076291;28;20066;-90
2021/06/28 03:38:27;;;;;;;4.20;3.80;;;;;;;23.61;51.33;99653.31;5076205;28;20044;-90
2021/06/28 03:40:54;;;;;;;4.68;3.88;;;;;;;23.63;51.17;99650.44;5074587;28;20048;-90
2021/06/28 03:43:21;;;;;;;4.43;3.80;;;;;;;23.65;51.52;99653.78;5074922;28;20048;-92
2021/06/28 03:45:47;;;;;;;8.57;4.00;;;;;;;23.65;51.79;99653.78;5074375;28;20056;-93
2021/06/28 03:48:14;;;;;;;4.47;3.97;;;;;;;23.67;52.09;99657.97;5076850;28;20063;-91
2021/06/28 03:50:42;;;;;;;5.68;4.22;;;;;;;23.68;52.07;99659.66;5073637;28;20509;-91
2021/06/28 03:53:10;;;;;;;6.57;4.13;;;;;;;23.69;51.87;99665.84;5074063;28;20049;-91
2021/06/28 03:55:37;;;;;;;6.43;4.40;;;;;;;23.70;52.43;99662.19;5072952;28;20054;-93
2021/06/28 03:58:05;;;;;;;13.02;4.18;;;;;;;23.71;52.13;99668.38;5076286;28;20514;-92
2021/06/28 04:00:32;;;;;;;5.25;4.10;;;;;;;23.69;52.13;99669.38;5074604;28;20407;-91
2021/06/28 04:03:01;;;;;;;3.92;3.63;;;;;;;23.68;51.69;99665.03;5076761;28;20106;-91
2021/06/28 04:05:28;;;;;;;5.30;4.30;;;;;;;23.69;51.94;99672.09;5074006;28;20154;-93
2021/06/28 04:07:55;;;;;;;6.72;4.05;;;;;;;23.69;51.72;99680.13;5075974;28;20417;-90
2021/06/28 04:10:23;;;;;;;4.13;3.72;;;;;;;23.68;52.43;99680.31;5073370;28;20053;-90
2021/06/28 04:12:52;;;;;;;4.40;4.00;;;;;;;23.67;52.51;99681.34;5072800;28;20056;-90
2021/06/28 04:15:19;;;;;;;4.30;3.92;;;;;;;23.66;52.20;99672.41;5074319;28;20048;-92
2021/06/28 04:17:49;;;;;;;4.40;4.10;;;;;;;23.66;51.98;99666.22;5072682;28;20131;-90
2021/06/28 04:20:20;;;;;;;4.78;3.97;;;;;;;23.62;51.95;99660.34;5073113;28;20052;-92
2021/06/28 04:22:48;;;;;;;4.72;4.25;;;;;;;23.59;52.15;99659.88;5072641;28;20095;-89
2021/06/28 04:25:18;;;;;;;4.55;3.90;;;;;;;23.53;52.02;99659.56;5073516;28;20048;-89
2021/06/28 04:27:46;;;;;;;5.13;4.35;;;;;;;23.50;52.15;99656.38;5073787;28;20055;-91
2021/06/28 04:30:15;;;;;;;5.07;4.57;;;;;;;23.45;52.47;99670.34;5073086;28;20409;-90
2021/06/28 04:32:41;;;;;;;5.50;5.00;;;;;;;23.40;52.31;99673.53;5072883;28;20056;-91
2021/06/28 04:35:12;;;;;;;7.10;5.05;;;;;;;23.37;52.81;99662.31;5072016;28;20063;-91
2021/06/28 04:37:39;;;;;;;6.35;4.97;;;;;;;23.35;52.68;99658.94;5072415;28;20059;-89
2021/06/28 04:40:07;;;;;;;5.30;4.80;;;;;;;23.30;53.22;99662.97;5073270;28;20407;-90
2021/06/28 04:42:34;;;;;;;5.78;5.25;;;;;;;23.26;53.11;99656.28;5072511;28;20040;-90
2021/06/28 04:45:01;;;;;;;6.65;5.00;;;;;;;23.24;53.37;99652.06;5072971;28;20419;-89
2021/06/28 04:47:28;;;;;;;8.10;5.45;;;;;;;23.22;53.36;99660.34;5072176;28;20102;-90
2021/06/28 04:49:54;;;;;;;6.15;5.20;;;;;;;23.21;53.72;99661.31;5073777;28;20406;-89
2021/06/28 04:52:21;;;;;;;5.88;5.28;;;;;;;23.19;53.89;99674.09;5072162;28;20166;-92
2021/06/28 04:54:48;;;;;;;6.50;5.53;;;;;;;23.18;54.03;99677.81;5071639;28;20063;-89
2021/06/28 04:57:16;;;;;;;5.63;5.13;;;;;;;23.19;54.00;99682.16;5071690;28;20520;-90
2021/06/28 04:59:43;;;;;;;7.05;5.45;;;;;;;23.16;54.09;99672.59;5074850;28;20060;-89
2021/06/28 05:02:10;;;;;;;6.22;5.63;;;;;;;23.16;54.32;99679.81;5072609;28;20055;-89
2021/06/28 05:04:37;;;;;;;6.13;5.53;;;;;;;23.14;54.34;99679.97;5071556;28;20049;-91
2021/06/28 05:07:04;;;;;;;5.88;5.28;;;;;;;23.14;54.25;99676.47;5071961;28;20052;-92
2021/06/28 05:09:31;;;;;;;7.38;4.55;;;;;;;23.12;54.37;99678.47;5072788;28;20505;-92
2021/06/28 05:11:57;;;;;;;5.97;5.25;;;;;;;23.11;54.46;99690.22;5072819;28;20045;-90
2021/06/28 05:14:26;;;;;;;6.70;5.43;;;;;;;23.08;54.53;99679.81;5071608;28;20067;-89
2021/06/28 05:16:53;;;;;;;7.63;5.43;;;;;;;23.05;54.49;99686.38;5072454;28;20052;-92
2021/06/28 05:19:19;;;;;;;5.38;4.88;;;;;;;23.02;54.73;99679.50;5072305;28;20052;-89
2021/06/28 05:21:46;;;;;;;5.63;4.80;;;;;;;22.99;54.66;99682.53;5071538;28;20056;-90
2021/06/28 05:24:12;;;;;;;5.63;5.03;;;;;;;22.96;54.89;99672.16;5072109;28;20079;-89
2021/06/28 05:26:39;;;;;;;7.03;5.10;;;;;;;22.93;54.87;99672.47;5071500;28;20057;-91
2021/06/28 05:29:06;;;;;;;6.68;5.22;;;;;;;22.92;55.05;99676.19;5073036;28;20049;-90
2021/06/28 05:31:32;;;;;;;6.50;5.15;;;;;;;22.91;55.52;99674.47;5071980;28;20049;-90
2021/06/28 05:33:59;;;;;;;7.50;5.38;;;;;;;22.89;55.65;99672.00;5071380;28;20052;-92
2021/06/28 05:36:26;;;;;;;5.32;4.82;;;;;;;22.92;55.67;99670.81;5072505;28;20048;-90
2021/06/28 05:38:52;;;;;;;7.47;5.70;;;;;;;22.94;55.97;99673.34;5072193;28;20053;-92
2021/06/28 05:41:19;;;;;;;7.75;5.80;;;;;;;22.97;55.73;99671.13;5071070;28;20098;-89
2021/06/28 05:43:47;;;;;;;6.20;5.43;;;;;;;23.03;55.96;99666.94;5071585;28;20055;-90
2021/06/28 05:46:14;;;;;;;6.07;5.50;;;;;;;23.08;55.82;99659.19;5071800;28;20082;-91
2021/06/28 05:48:40;;;;;;;6.65;5.68;;;;;;;23.13;56.07;99662.19;5070876;28;20048;-92
2021/06/28 05:51:07;;;;;;;6.30;5.70;;;;;;;23.19;56.21;99663.34;5071930;28;20063;-90
2021/06/28 05:53:34;;;;;;;8.10;5.70;;;;;;;23.24;56.19;99663.66;5071926;28;20048;-90
2021/06/28 05:56:02;;;;;;;5.57;5.07;;;;;;;23.30;56.62;99659.47;5070915;28;20052;-89
2021/06/28 05:58:29;;;;;;;6.07;5.45;;;;;;;23.37;56.51;99656.94;5071276;28;20456;-92
2021/06/28 06:00:58;;;;;;;6.47;5.78;;;;;;;23.43;55.98;99656.25;5072486;28;20049;-89
2021/06/28 06:03:26;;;;;;;6.05;5.13;;;;;;;23.49;55.48;99658.25;5070864;28;20061;-90
2021/06/28 06:05:53;;;;;;;5.97;5.13;;;;;;;23.55;55.35;99652.16;5070249;28;20109;-92
2021/06/28 06:08:23;;;;;;;7.63;4.97;;;;;;;23.63;55.52;99650.44;5072406;28;20596;-90
2021/06/28 06:10:51;;;;;;;5.80;5.20;;;;;;;23.68;55.07;99656.13;5070881;28;20052;-90
2021/06/28 06:13:18;;;;;;;5.60;4.72;;;;;;;23.74;54.93;99658.09;5070791;28;20045;-89
2021/06/28 06:15:45;;;;;;;5.65;4.75;;;;;;;23.81;55.21;99652.88;5074270;28;20045;-90
2021/06/28 06:18:12;;;;;;;6.35;4.95;;;;;;;23.86;55.46;99653.19;5075211;28;20063;-89
2021/06/28 06:20:40;;;;;;;6.07;5.28;;;;;;;23.91;55.27;99660.69;5076097;28;20064;-91
2021/06/28 06:23:08;;;;;;;6.75;4.80;;;;;;;23.96;54.83;99655.66;5075998;28;20489;-91
2021/06/28 06:25:35;;;;;;;6.70;4.57;;;;;;;24.01;54.56;99661.31;5074918;28;20078;-91
2021/06/28 06:28:02;;;;;;;6.05;4.70;;;;;;;24.05;54.84;99668.00;5075069;28;20055;-91
2021/06/28 06:30:28;;;;;;;7.60;4.60;;;;;;;24.12;54.32;99670.00;5075054;28;20060;-91
2021/06/28 06:32:55;;;;;;;4.82;4.38;;;;;;;24.18;54.03;99669.31;5075998;28;20460;-91
2021/06/28 06:35:22;;;;;;;5.28;4.88;;;;;;;24.23;54.46;99663.38;5075954;28;20052;-90
2021/06/28 06:37:53;;;;;;;5.28;4.60;;;;;;;24.28;53.97;99664.50;5074091;28;20049;-91
2021/06/28 06:40:21;;;;;;;5.40;4.90;;;;;;;24.34;54.29;99658.41;5074635;28;20052;-90
2021/06/28 06:42:48;;;;;;;6.53;4.70;;;;;;;24.42;54.70;99657.53;5076269;28;20405;-92
2021/06/28 06:45:15;;;;;;;5.75;4.72;;;;;;;24.49;53.70;99662.16;5075678;28;20102;-91
2021/06/28 06:47:42;;;;;;;4.60;4.20;;;;;;;24.54;53.11;99660.59;5074575;28;20410;-91
2021/06/28 06:50:11;;;;;;;5.25;4.75;;;;;;;24.61;52.42;99660.72;5073717;28;20516;-91
2021/06/28 06:52:39;;;;;;;4.80;4.30;;;;;;;24.67;52.93;99654.59;5075754;28;20409;-91
2021/06/28 06:55:08;;;;;;;4.53;4.13;;;;;;;24.72;52.27;99664.81;5074207;28;20494;-88
2021/06/28 06:57:39;;;;;;;4.57;4.18;;;;;;;24.79;52.44;99673.00;5074975;28;20048;-88
2021/06/28 07:00:12;;;;;;;4.68;4.28;;;;;;;24.84;52.46;99665.22;5075242;28;20468;-89
2021/06/28 07:02:40;;;;;;;4.60;4.20;;;;;;;24.93;52.24;99666.00;5075506;28;20070;-89
2021/06/28 07:05:07;;;;;;;5.00;4.50;;;;;;;24.98;51.76;99664.41;5073349;28;20080;-87
2021/06/28 07:07:36;;;;;;;7.35;4.45;;;;;;;25.05;51.55;99652.91;5075299;28;20130;-88
2021/06/28 07:10:05;;;;;;;4.35;3.88;;;;;;;25.10;51.69;99656.72;5074996;28;20063;-87
2021/06/28 07:12:32;;;;;;;4.25;3.80;;;;;;;25.18;51.37;99653.09;5075109;28;20075;-89
2021/06/28 07:14:59;;;;;;;6.07;4.40;;;;;;;25.25;51.12;99647.78;5073751;28;20151;-88
2021/06/28 07:17:26;;;;;;;4.55;4.10;;;;;;;25.30;51.48;99645.38;5075095;28;20413;-89
2021/06/28 07:19:53;;;;;;;8.63;3.80;;;;;;;25.38;51.57;99649.84;5075151;28;20460;-89
2021/06/28 07:22:19;;;;;;;4.20;3.90;;;;;;;25.45;51.33;99642.66;5072781;28;20072;-87
2021/06/28 07:24:47;;;;;;;4.07;3.72;;;;;;;25.54;51.00;99651.47;5074461;28;20060;-88
2021/06/28 07:27:13;;;;;;;5.40;3.90;;;;;;;25.63;51.30;99652.22;5074989;28;20059;-89
2021/06/28 07:29:40;;;;;;;4.45;4.05;;;;;;;25.71;51.60;99648.59;5074934;28;20444;-90
2021/06/28 07:32:11;;;;;;;4.38;3.97;;;;;;;25.80;51.50;99649.31;5073416;28;20055;-88
2021/06/28 07:34:38;;;;;;;4.53;3.97;;;;;;;25.88;51.59;99652.72;5074458;28;20052;-88
2021/06/28 07:37:05;;;;;;;5.28;4.43;;;;;;;25.96;51.11;99645.53;5074671;28;20071;-88
2021/06/28 07:39:32;;;;;;;4.57;4.18;;;;;;;26.04;51.37;99652.69;5072823;28;20642;-89
2021/06/28 07:41:58;;;;;;;4.43;3.95;;;;;;;26.10;51.33;99649.19;5074262;28;20052;-89
2021/06/28 07:44:25;;;;;;;4.45;4.05;;;;;;;26.18;51.87;99648.22;5073119;28;20056;-88
2021/06/28 07:46:52;;;;;;;4.75;4.30;;;;;;;26.24;51.08;99645.59;5073453;28;20106;-89
2021/06/28 07:49:19;;;;;;;5.55;5.05;;;;;;;26.32;50.72;99644.69;5074316;28;20135;-90
2021/06/28 07:51:46;;;;;;;4.85;4.40;;;;;;;26.39;51.37;99633.94;5074413;28;20056;-88
2021/06/28 07:54:15;;;;;;;4.35;3.92;;;;;;;26.48;50.74;99634.59;5073570;28;20054;-90
2021/06/28 07:56:42;;;;;;;4.88;4.40;;;;;;;26.55;51.05;99630.09;5074269;28;20044;-88
2021/06/28 07:59:09;;;;;;;4.80;4.07;;;;;;;26.62;50.89;99630.16;5072761;28;20052;-90
2021/06/28 08:01:36;;;;;;;4.97;4.22;;;;;;;26.70;50.90;99623.75;5072921;28;20056;-87
2021/06/28 08:04:03;;;;;;;4.30;4.00;;;;;;;26.78;51.20;99629.88;5072968;28;20410;-88
2021/06/28 08:06:30;;;;;;;4.63;4.22;;;;;;;26.87;50.93;99641.31;5074224;28;20059;-88
2021/06/28 08:08:56;;;;;;;5.30;4.20;;;;;;;26.97;51.32;99642.88;5074130;28;20053;-88
2021/06/28 08:11:24;;;;;;;4.88;4.20;;;;;;;27.07;51.08;99646.06;5072553;28;20053;-90
2021/06/28 08:13:53;;;;;;;4.20;3.85;;;;;;;27.16;51.10;99646.72;5073895;28;20056;-89
2021/06/28 08:16:21;;;;;;;4.95;4.45;;;;;;;27.26;50.39;99651.75;5072552;28;20049;-88
2021/06/28 08:18:49;;;;;;;3.80;3.50;;;;;;;27.35;49.92;99655.16;5073618;28;20044;-88
2021/06/28 08:21:36;;;;;;;4.35;3.95;;;;;;;27.44;49.58;99652.03;5072574;28;20056;-87
2021/06/28 08:24:04;;;;;;;4.68;3.85;;;;;;;27.54;49.68;99653.53;5073306;28;20052;-90
2021/06/28 08:26:32;;;;;;;4.30;3.90;;;;;;;27.60;49.53;99658.16;5073474;28;20049;-89
2021/06/28 08:29:03;;;;;;;4.38;3.97;;;;;;;27.66;49.22;99665.47;5073401;28;20048;-89
2021/06/28 08:31:31;;;;;;;4.13;3.80;;;;;;;27.72;49.66;99668.41;5073363;28;20501;-90
2021/06/28 08:34:09;;;;;;;4.82;3.90;;;;;;;27.79;49.65;99670.09;5073069;28;20052;-88
2021/06/28 08:36:36;;;;;;;5.53;3.88;;;;;;;27.84;49.15;99673.03;5073641;28;20570;-88
2021/06/28 08:39:04;;;;;;;3.83;3.53;;;;;;;27.91;48.79;99672.19;5072968;28;20052;-88
2021/06/28 08:41:31;;;;;;;4.03;3.72;;;;;;;27.97;48.34;99664.09;5072113;28;20056;-88
2021/06/28 08:43:58;;;;;;;4.25;3.85;;;;;;;28.03;48.59;99656.22;5071714;28;20040;-90
2021/06/28 08:46:25;;;;;;;4.72;4.32;;;;;;;28.09;48.50;99660.78;5071880;28;21093;-87
2021/06/28 08:48:53;;;;;;;3.80;3.50;;;;;;;28.15;48.27;99664.56;5072152;28;20103;-88
2021/06/28 08:51:20;;;;;;;4.55;3.90;;;;;;;28.20;48.59;99660.19;5071740;28;20502;-88
2021/06/28 08:54:05;;;;;;;5.38;3.90;;;;;;;28.27;49.71;99657.53;5071927;28;20118;-89
2021/06/28 08:56:33;;;;;;;3.95;3.63;;;;;;;28.35;48.57;99651.06;5072100;28;20060;-88
2021/06/28 08:59:03;;;;;;;3.80;3.50;;;;;;;28.43;48.18;99655.44;5072493;28;20059;-90
2021/06/28 09:01:34;;;;;;;4.40;4.00;;;;;;;28.51;48.29;99660.63;5071480;28;20063;-89
2021/06/28 09:04:03;;;;;;;4.67;3.50;;;;;;;28.57;47.33;99662.53;5071492;28;20052;-88
2021/06/28 09:06:30;;;;;;;4.15;3.75;;;;;;;28.65;48.17;99666.03;5071441;28;20356;-88
2021/06/28 09:09:18;;;;;;;6.97;3.75;;;;;;;28.65;48.19;99676.88;5073189;28;20052;-89
2021/06/28 09:11:47;;;;;;;12.05;3.80;;;;;;;28.77;48.10;99668.97;5071511;28;20056;-90
2021/06/28 09:14:16;;;;;;;3.90;3.60;;;;;;;28.83;47.17;99670.84;5072515;28;20053;-89
2021/06/28 09:16:45;;;;;;;4.05;3.75;;;;;;;28.89;46.30;99667.25;5071075;28;20044;-89
2021/06/28 09:19:20;;;;;;;3.90;3.60;;;;;;;28.93;46.79;99665.84;5071200;28;20044;-88
2021/06/28 09:21:53;;;;;;;3.55;3.25;;;;;;;29.00;47.13;99663.94;5072736;28;20057;-88
2021/06/28 09:24:30;;;;;;;3.40;3.10;;;;;;;29.04;46.73;99666.25;5072234;28;20498;-87
2021/06/28 09:27:18;;;;;;;3.85;3.55;;;;;;;29.11;46.67;99667.88;5072909;28;20059;-88
2021/06/28 09:29:54;;;;;;;4.50;4.10;;;;;;;29.21;46.95;99662.03;5072508;28;20052;-88
2021/06/28 09:32:22;;;;;;;3.35;3.05;;;;;;;29.30;47.27;99665.31;5072596;28;20049;-89
2021/06/28 09:34:52;;;;;;;4.68;3.70;;;;;;;29.38;46.17;99656.94;5072233;28;20044;-90
2021/06/28 09:37:24;;;;;;;3.80;3.50;;;;;;;29.49;46.16;99655.44;5072221;28;20498;-90
2021/06/28 09:39:53;;;;;;;3.97;3.67;;;;;;;29.61;46.18;99660.22;5072507;28;20079;-88
2021/06/28 09:42:26;;;;;;;5.45;3.50;;;;;;;29.71;45.60;99654.34;5071219;28;20410;-89
2021/06/28 09:44:55;;;;;;;5.00;3.53;;;;;;;29.86;45.99;99656.78;5071360;28;20048;-89
2021/06/28 09:47:25;;;;;;;4.43;3.83;;;;;;;29.96;45.94;99657.13;5072006;28;20508;-88
2021/06/28 09:49:59;;;;;;;4.20;3.45;;;;;;;30.06;45.99;99650.38;5070400;28;20052;-91
2021/06/28 09:52:42;;;;;;;5.18;3.58;;;;;;;30.20;44.30;99654.66;5072257;28;20489;-90
2021/06/28 09:55:24;;;;;;;3.78;3.47;;;;;;;30.30;45.37;99655.03;5072162;28;20052;-89
2021/06/28 09:58:14;;;;;;;3.80;3.50;;;;;;;30.43;45.56;99655.97;5071235;28;20048;-89
2021/06/28 10:00:44;;;;;;;4.10;3.70;;;;;;;30.58;44.59;99647.50;5072212;28;20049;-90
2021/06/28 10:03:34;;;;;;;3.25;3.05;;;;;;;30.64;44.12;99652.03;5070994;28;20131;-90
2021/06/28 10:06:27;;;;;;;4.00;3.13;;;;;;;30.77;43.24;99656.53;5050910;28;20063;-89
2021/06/28 10:09:07;;;;;;;;;;;;;;;30.84;44.73;99658.34;5051172;28;20053;-89
2021/06/28 10:11:42;;;;;;;3.03;2.83;;;;;;;30.98;43.78;99654.44;5051097;28;20369;-89
2021/06/28 10:14:09;;;;;;;4.53;3.17;;;;;;;31.01;43.13;99655.84;5052181;28;20041;-90
2021/06/28 10:16:39;;;;;;;3.70;3.40;;;;;;;31.03;41.97;99653.75;5051858;28;20064;-90
2021/06/28 10:19:09;;;;;;;3.72;3.28;;;;;;;31.03;42.10;99642.88;5052033;28;20485;-90
2021/06/28 10:21:37;;;;;;;3.70;3.08;;;;;;;31.06;42.68;99648.69;5063614;28;20514;-89
2021/06/28 10:24:07;;;;;;;6.35;3.80;;;;;;;31.10;42.40;99648.25;5071298;28;20051;-89
2021/06/28 10:26:34;;;;;;;3.53;3.22;;;;;;;31.15;42.39;99648.41;5072011;28;20052;-90
2021/06/28 10:29:01;;;;;;;4.20;3.65;;;;;;;31.22;42.09;99641.00;5071755;28;20060;-89
2021/06/28 10:31:27;;;;;;;4.90;3.67;;;;;;;31.27;42.02;99641.13;5070640;28;20056;-88
2021/06/28 10:33:58;;;;;;;4.22;3.83;;;;;;;31.30;41.63;99643.41;5070655;28;20045;-88
2021/06/28 10:36:38;;;;;;;4.15;3.75;;;;;;;31.29;41.14;99635.47;5071959;28;20051;-90
2021/06/28 10:39:07;;;;;;;4.50;3.42;;;;;;;31.29;41.14;99633.56;5070328;28;20057;-88
2021/06/28 10:41:46;;;;;;;3.80;3.40;;;;;;;31.23;41.38;99636.38;5071277;28;20056;-90
2021/06/28 10:44:15;;;;;;;3.42;2.83;;;;;;;31.21;41.98;99632.00;5071361;28;20481;-89
2021/06/28 10:46:44;;;;;;;3.80;3.50;;;;;;;31.19;41.76;99630.56;5070644;28;20052;-89
2021/06/28 10:49:13;;;;;;;3.97;3.67;;;;;;;31.15;42.00;99632.94;5070251;28;20052;-89
2021/06/28 10:51:49;;;;;;;3.75;3.45;;;;;;;31.07;42.16;99630.50;5070565;28;20452;-90
2021/06/28 10:54:36;;;;;;;4.05;3.72;;;;;;;31.05;41.46;99627.16;5070219;28;20048;-90
2021/06/28 10:57:10;;;;;;;4.05;3.47;;;;;;;31.01;41.79;99629.53;5070434;28;20097;-90
2021/06/28 10:59:44;;;;;;;3.97;3.58;;;;;;;30.93;41.36;99627.09;5070488;28;20502;-89
2021/06/28 11:02:12;;;;;;;3.90;3.60;;;;;;;30.88;41.10;99622.34;5073677;28;20063;-91
2021/06/28 11:04:54;;;;;;;4.07;3.50;;;;;;;30.78;41.53;99630.19;5074531;28;20418;-91
2021/06/28 11:07:21;;;;;;;3.63;3.28;;;;;;;30.72;41.79;99642.78;5074308;28;20097;-89
2021/06/28 11:09:57;;;;;;;3.05;2.78;;;;;;;30.58;40.70;99636.63;5074148;28;20135;-90
2021/06/28 11:12:27;;;;;;;3.92;3.42;;;;;;;30.54;41.38;99632.69;5074523;28;20052;-90
2021/06/28 11:15:10;;;;;;;3.83;3.25;;;;;;;30.43;41.73;99636.97;5074255;28;20071;-91
2021/06/28 11:17:50;;;;;;;3.72;3.30;;;;;;;30.34;42.30;99639.13;5075471;28;20052;-90
2021/06/28 11:20:18;;;;;;;3.97;3.58;;;;;;;30.29;41.25;99631.66;5073678;28;20056;-89
2021/06/28 11:23:19;;;;;;;6.82;3.38;;;;;;;30.16;42.17;99634.47;5073976;28;20421;-90
2021/06/28 11:25:54;;;;;;;3.75;3.42;;;;;;;30.09;41.97;99634.47;5075211;28;20056;-89
2021/06/28 11:28:37;;;;;;;3.65;3.45;;;;;;;30.01;42.49;99642.91;5074725;28;20064;-89
2021/06/28 11:31:13;;;;;;;4.32;3.92;;;;;;;29.98;42.36;99638.72;5074280;28;20057;-90
2021/06/28 11:33:46;;;;;;;3.30;3.00;;;;;;;29.95;42.19;99635.63;5073553;28;20049;-89
2021/06/28 11:36:22;;;;;;;;;;;;;;;29.88;43.11;99641.94;5074164;28;20056;-89
2021/06/28 11:38:49;;;;;;;3.50;3.28;;;;;;;29.89;42.21;99638.16;5074106;28;20382;-89
2021/06/28 11:41:21;;;;;;;4.00;3.70;;;;;;;29.82;43.53;99642.78;5074727;28;20075;-88
2021/06/28 11:43:55;;;;;;;4.27;3.87;;;;;;;29.76;42.57;99641.78;5073496;28;20409;-89